Time;durP1;ratioP1;P1;durP2;ratioP2;P2;SDS_P1;SDS_P2;PMS_P1;PMS_P2;Temp;Humidity;BMP_temperature;BMP_pressure;BME280_temperature;BME280_humidity;BME280_pressure;Samples;Min_cycle;Max_cycle;Signal;HPM_P1;HPM_P2
2023/02/23 00:01:56;;;;;;;26.30;12.90;;;9.00;99.60;;;;;;4866962;29;20105;-92
2023/02/23 00:04:24;;;;;;;20.58;9.93;;;9.00;99.60;;;;;;4867307;29;20041;-92
2023/02/23 00:06:52;;;;;;;26.05;11.55;;;9.00;99.60;;;;;;4852455;29;20053;-93
2023/02/23 00:09:26;;;;;;;30.00;13.95;;;9.00;99.60;;;;;;4867308;29;20049;-93
2023/02/23 00:11:57;;;;;;;30.98;15.45;;;9.00;99.60;;;;;;4852681;29;20521;-91
2023/02/23 00:14:29;;;;;;;31.30;16.63;;;9.00;99.50;;;;;;4867157;29;20045;-92
2023/02/23 00:17:00;;;;;;;42.25;20.52;;;9.00;99.50;;;;;;4848426;29;20046;-91
2023/02/23 00:19:27;;;;;;;41.55;20.17;;;9.00;99.50;;;;;;4859046;29;20046;-91
2023/02/23 00:21:57;;;;;;;38.42;18.33;;;9.00;99.50;;;;;;4851648;29;20053;-92
2023/02/23 00:24:25;;;;;;;33.72;16.95;;;9.00;99.50;;;;;;4851900;29;20052;-91
2023/02/23 00:26:56;;;;;;;47.40;22.05;;;9.00;99.50;;;;;;4843255;29;20044;-92
2023/02/23 00:29:23;;;;;;;41.05;20.40;;;8.90;99.40;;;;;;4870580;29;20409;-91
2023/02/23 00:31:54;;;;;;;39.53;19.50;;;8.90;99.50;;;;;;4858581;29;20102;-92
2023/02/23 00:34:22;;;;;;;36.08;18.58;;;8.90;99.50;;;;;;4851286;29;20053;-92
2023/02/23 00:36:55;;;;;;;33.35;17.42;;;8.80;99.50;;;;;;4851893;29;20093;-91
2023/02/23 00:39:27;;;;;;;36.10;18.00;;;8.80;99.50;;;;;;4866763;29;20057;-92
2023/02/23 00:42:01;;;;;;;32.70;16.10;;;8.80;99.50;;;;;;4866439;29;20045;-92
2023/02/23 00:44:28;;;;;;;33.75;18.02;;;8.80;99.50;;;;;;4866371;29;20053;-92
2023/02/23 00:46:55;;;;;;;35.30;18.15;;;8.80;99.50;;;;;;4835973;29;20554;-92
2023/02/23 00:49:22;;;;;;;42.50;19.77;;;8.80;99.50;;;;;;4851638;29;20490;-91
2023/02/23 00:51:50;;;;;;;41.60;20.75;;;8.80;99.50;;;;;;4851263;29;20056;-92
2023/02/23 00:54:20;;;;;;;40.40;19.30;;;8.80;99.40;;;;;;4866206;29;20056;-92
2023/02/23 00:56:47;;;;;;;36.28;16.65;;;8.80;99.40;;;;;;4866301;29;20136;-93
2023/02/23 00:59:17;;;;;;;37.33;18.10;;;8.90;99.40;;;;;;4866502;29;20518;-91
2023/02/23 01:01:45;;;;;;;30.05;16.48;;;8.90;99.40;;;;;;4866068;29;20102;-92
2023/02/23 01:04:12;;;;;;;33.47;15.68;;;8.90;99.40;;;;;;4864498;29;20135;-90
2023/02/23 01:06:41;;;;;;;31.10;16.15;;;8.90;99.40;;;;;;4866166;29;20045;-94
2023/02/23 01:09:12;;;;;;;30.35;14.55;;;8.90;99.30;;;;;;4866074;29;20049;-94
2023/02/23 01:11:40;;;;;;;28.48;13.80;;;8.90;99.30;;;;;;4866061;29;20065;-93
2023/02/23 01:14:09;;;;;;;24.23;12.90;;;9.00;99.30;;;;;;4850713;29;20060;-94
2023/02/23 01:16:39;;;;;;;26.30;14.00;;;9.00;99.40;;;;;;4866454;29;20181;-93
2023/02/23 01:19:07;;;;;;;30.83;14.18;;;9.00;99.40;;;;;;4881833;29;20056;-92
2023/02/23 01:21:37;;;;;;;25.55;13.43;;;9.00;99.40;;;;;;4866046;29;20096;-93
2023/02/23 01:24:07;;;;;;;28.27;14.45;;;9.00;99.40;;;;;;4851653;29;20051;-92
2023/02/23 01:26:37;;;;;;;26.80;13.68;;;9.00;99.30;;;;;;4837482;29;20045;-93
2023/02/23 01:29:07;;;;;;;26.55;12.63;;;9.00;99.40;;;;;;4865758;29;20045;-93
2023/02/23 01:31:37;;;;;;;32.60;15.98;;;9.00;99.30;;;;;;4865780;29;20472;-94
2023/02/23 01:34:05;;;;;;;31.83;15.65;;;9.00;99.30;;;;;;4865802;29;20059;-93
2023/02/23 01:36:35;;;;;;;30.20;15.25;;;9.00;99.30;;;;;;4865904;29;20425;-93
2023/02/23 01:39:05;;;;;;;31.58;16.80;;;9.00;99.30;;;;;;4850708;29;20565;-92
2023/02/23 01:41:35;;;;;;;29.55;14.93;;;9.00;99.30;;;;;;4865590;29;20057;-92
2023/02/23 01:44:05;;;;;;;33.65;15.90;;;9.00;99.30;;;;;;4865273;29;20057;-92
2023/02/23 01:46:35;;;;;;;;;;;9.00;99.30;;;;;;4865611;29;20051;-92
2023/02/23 01:49:05;;;;;;;38.70;19.63;;;9.00;99.30;;;;;;4865681;29;19928;-92
2023/02/23 01:51:43;;;;;;;34.50;17.42;;;8.90;99.30;;;;;;4865838;29;20151;-92
2023/02/23 01:54:16;;;;;;;33.33;18.00;;;8.90;99.30;;;;;;4865633;29;20053;-93
2023/02/23 01:56:48;;;;;;;33.72;15.90;;;8.90;99.30;;;;;;4865561;29;20108;-93
2023/02/23 01:59:16;;;;;;;30.23;15.05;;;8.90;99.40;;;;;;4865922;29;20045;-93
2023/02/23 02:01:44;;;;;;;26.77;13.50;;;8.90;99.40;;;;;;4870813;29;20049;-94
2023/02/23 02:04:15;;;;;;;23.00;12.77;;;8.90;99.40;;;;;;4856391;29;20053;-94
2023/02/23 02:06:45;;;;;;;24.38;12.57;;;8.90;99.40;;;;;;4856906;29;20057;-93
2023/02/23 02:09:16;;;;;;;30.33;13.75;;;8.90;99.40;;;;;;4871479;29;20045;-92
2023/02/23 02:11:45;;;;;;;25.67;12.70;;;8.90;99.40;;;;;;4871597;29;20084;-92
2023/02/23 02:14:19;;;;;;;25.67;13.25;;;8.90;99.40;;;;;;4858322;29;20057;-94
2023/02/23 02:17:09;;;;;;;28.17;13.00;;;8.90;99.40;;;;;;4879977;29;20056;-94
2023/02/23 02:20:05;;;;;;;23.27;11.73;;;8.90;99.40;;;;;;4854697;29;20079;-95
2023/02/23 02:22:47;;;;;;;19.92;10.07;;;9.00;99.40;;;;;;4839498;29;20057;-95
2023/02/23 02:25:35;;;;;;;21.98;11.13;;;9.00;99.40;;;;;;4853547;29;20048;-95
2023/02/23 02:28:35;;;;;;;21.38;11.27;;;9.00;99.40;;;;;;4864114;29;20063;-94
2023/02/23 02:31:28;;;;;;;19.77;9.98;;;9.00;99.30;;;;;;4849988;29;20045;-93
2023/02/23 02:34:17;;;;;;;29.67;14.50;;;8.90;99.40;;;;;;4855949;29;20060;-94
2023/02/23 02:37:10;;;;;;;37.70;16.80;;;8.90;99.30;;;;;;4856898;29;20113;-93
2023/02/23 02:39:46;;;;;;;26.65;13.88;;;8.90;99.30;;;;;;4852466;29;20053;-94
2023/02/23 02:42:38;;;;;;;29.48;15.40;;;8.90;99.40;;;;;;4870699;29;20049;-92
2023/02/23 02:45:25;;;;;;;29.40;14.02;;;8.80;99.30;;;;;;4877172;29;20045;-91
2023/02/23 02:48:04;;;;;;;22.38;11.57;;;8.90;99.40;;;;;;4893418;29;20055;-92
2023/02/23 02:51:04;;;;;;;27.38;11.90;;;8.80;99.40;;;;;;4877316;29;20052;-94
2023/02/23 02:54:05;;;;;;;19.85;9.40;;;8.80;99.40;;;;;;4846145;29;20056;-93
2023/02/23 02:56:39;;;;;;;22.92;10.50;;;8.90;99.40;;;;;;4863829;29;20059;-93
2023/02/23 04:18:14;;;;;;;24.25;12.38;;;8.70;99.50;;;;;;4867500;29;20120;-93
2023/02/23 04:20:41;;;;;;;23.05;12.10;;;8.70;99.50;;;;;;4867749;29;20073;-93
2023/02/23 04:23:09;;;;;;;23.05;11.63;;;8.70;99.60;;;;;;4852578;29;20045;-93
2023/02/23 04:25:36;;;;;;;23.23;10.95;;;8.70;99.60;;;;;;4852188;29;20419;-94
2023/02/23 04:28:03;;;;;;;22.98;11.57;;;8.70;99.60;;;;;;4867239;29;20117;-94
2023/02/23 04:30:30;;;;;;;25.50;12.50;;;8.70;99.60;;;;;;4867614;29;20045;-93
2023/02/23 04:33:01;;;;;;;25.27;12.77;;;8.70;99.60;;;;;;4867311;29;20125;-93
2023/02/23 04:35:30;;;;;;;22.70;11.13;;;8.70;99.60;;;;;;4852430;29;20064;-93
2023/02/23 04:38:00;;;;;;;25.83;12.45;;;8.70;99.60;;;;;;4852488;29;20045;-93
2023/02/23 04:40:28;;;;;;;26.35;12.35;;;8.70;99.60;;;;;;4852033;29;20045;-93
2023/02/23 04:42:55;;;;;;;29.95;15.57;;;8.70;99.60;;;;;;4852092;29;20490;-93
2023/02/23 04:45:29;;;;;;;28.73;14.05;;;8.60;99.50;;;;;;4852588;29;20136;-93
2023/02/23 04:47:56;;;;;;;27.60;13.45;;;8.60;99.60;;;;;;4867429;29;20061;-94
2023/02/23 04:50:23;;;;;;;27.48;13.13;;;8.60;99.60;;;;;;4852006;29;20074;-93
2023/02/23 04:52:52;;;;;;;31.75;16.58;;;8.60;99.70;;;;;;4852218;29;20131;-91
2023/02/23 04:55:21;;;;;;;32.40;14.50;;;8.50;99.70;;;;;;4837233;29;20064;-92
2023/02/23 04:57:49;;;;;;;28.40;14.05;;;8.50;99.70;;;;;;4867661;29;20055;-92
2023/02/23 05:00:17;;;;;;;26.65;14.25;;;8.50;99.70;;;;;;4852663;29;20113;-93
2023/02/23 05:02:44;;;;;;;25.40;12.85;;;8.50;99.80;;;;;;4859052;29;20413;-92
2023/02/23 05:05:11;;;;;;;27.02;13.10;;;8.50;99.80;;;;;;4885721;29;20044;-93
2023/02/23 05:07:39;;;;;;;25.17;13.32;;;8.50;99.80;;;;;;4885174;29;20136;-93
2023/02/23 05:10:06;;;;;;;31.75;15.63;;;8.50;99.80;;;;;;4884778;29;20045;-93
2023/02/23 05:12:33;;;;;;;30.45;16.48;;;8.50;99.80;;;;;;4884243;29;20063;-93
2023/02/23 05:15:00;;;;;;;30.40;14.82;;;8.40;99.80;;;;;;4850881;29;20057;-93
2023/02/23 05:17:31;;;;;;;27.65;13.48;;;8.40;99.90;;;;;;4866313;29;20064;-93
2023/02/23 05:19:58;;;;;;;24.55;11.98;;;8.40;99.90;;;;;;4866243;29;20060;-93
2023/02/23 05:22:25;;;;;;;24.02;12.30;;;8.40;99.90;;;;;;4847625;29;20065;-93
2023/02/23 05:24:52;;;;;;;23.50;10.90;;;8.40;99.90;;;;;;4835817;29;20045;-93
2023/02/23 05:27:22;;;;;;;20.33;10.00;;;8.40;99.90;;;;;;4833110;29;20414;-93
2023/02/23 05:29:49;;;;;;;21.48;10.52;;;8.40;99.90;;;;;;4832780;29;20118;-93
2023/02/23 05:32:16;;;;;;;18.20;9.55;;;8.40;99.90;;;;;;4847445;29;20075;-93
2023/02/23 05:34:44;;;;;;;17.90;8.52;;;8.40;99.90;;;;;;4817718;29;20049;-93
2023/02/23 05:37:11;;;;;;;19.30;9.13;;;8.40;99.90;;;;;;4857827;29;20053;-93
2023/02/23 05:39:38;;;;;;;20.10;9.32;;;8.40;99.90;;;;;;4850897;29;20053;-93
2023/02/23 05:42:05;;;;;;;19.15;10.05;;;8.40;99.90;;;;;;4836062;29;20053;-93
2023/02/23 05:44:32;;;;;;;20.63;9.43;;;8.40;99.90;;;;;;4850917;29;20049;-93
2023/02/23 05:46:59;;;;;;;18.67;8.73;;;8.40;99.90;;;;;;4836401;29;20052;-93
2023/02/23 05:49:27;;;;;;;22.80;10.27;;;8.40;99.90;;;;;;4851338;29;20053;-93
2023/02/23 05:51:54;;;;;;;21.92;10.27;;;8.30;99.90;;;;;;4850575;29;20052;-92
2023/02/23 05:54:21;;;;;;;19.58;9.35;;;8.40;99.90;;;;;;4865889;29;20053;-93
2023/02/23 05:56:48;;;;;;;21.10;10.23;;;8.30;99.90;;;;;;4850837;29;20058;-93
2023/02/23 05:59:16;;;;;;;22.00;10.27;;;8.30;99.90;;;;;;4850509;29;20421;-92
2023/02/23 06:01:43;;;;;;;18.73;9.48;;;8.30;99.90;;;;;;4835917;29;20052;-91
2023/02/23 06:04:10;;;;;;;26.60;11.80;;;8.30;99.90;;;;;;4861949;29;20144;-92
2023/02/23 06:06:37;;;;;;;21.33;10.30;;;8.30;99.90;;;;;;4826238;29;20042;-92
2023/02/23 06:09:04;;;;;;;24.80;11.85;;;8.30;99.90;;;;;;4863474;29;20045;-93
2023/02/23 06:11:31;;;;;;;23.05;10.77;;;8.30;99.90;;;;;;4866044;29;20041;-91
2023/02/23 06:13:58;;;;;;;25.65;11.85;;;8.30;99.90;;;;;;4864950;29;20052;-91
2023/02/23 06:16:26;;;;;;;26.80;13.10;;;8.30;99.90;;;;;;4864875;29;20100;-92
2023/02/23 06:18:54;;;;;;;26.33;13.82;;;8.30;99.90;;;;;;4864717;29;20053;-92
2023/02/23 06:21:21;;;;;;;31.13;13.90;;;8.20;99.90;;;;;;4849790;29;20052;-92
2023/02/23 06:23:52;;;;;;;31.63;13.43;;;8.20;99.90;;;;;;4834376;29;20050;-92
2023/02/23 06:26:19;;;;;;;29.55;14.32;;;8.20;99.90;;;;;;4853526;29;20049;-91
2023/02/23 06:28:46;;;;;;;31.27;14.82;;;8.20;99.90;;;;;;4864948;29;20049;-92
2023/02/23 06:31:13;;;;;;;25.20;12.32;;;8.20;99.90;;;;;;4863965;29;20060;-91
2023/02/23 06:33:40;;;;;;;21.77;11.10;;;8.20;99.90;;;;;;4854633;29;20053;-92
2023/02/23 06:36:09;;;;;;;23.42;12.32;;;8.20;99.90;;;;;;4852817;29;20061;-83
2023/02/23 06:38:36;;;;;;;20.48;8.85;;;8.20;99.90;;;;;;4849303;29;20482;-83
2023/02/23 06:41:08;;;;;;;17.65;8.60;;;8.20;99.90;;;;;;4847934;29;20059;-83
2023/02/23 06:43:35;;;;;;;23.58;10.60;;;8.30;99.90;;;;;;4847767;29;20057;-82
2023/02/23 06:46:03;;;;;;;20.10;9.07;;;8.30;99.90;;;;;;4829188;29;20412;-82
2023/02/23 06:48:31;;;;;;;21.35;9.65;;;8.30;99.90;;;;;;4832939;29;20089;-82
2023/02/23 06:51:00;;;;;;;18.73;9.07;;;8.30;99.90;;;;;;4847623;29;20049;-83
2023/02/23 06:53:30;;;;;;;21.17;9.30;;;8.30;99.90;;;;;;4847330;29;20049;-83
2023/02/23 06:55:59;;;;;;;20.38;9.23;;;8.30;99.90;;;;;;4847264;29;20048;-83
2023/02/23 06:58:27;;;;;;;21.17;10.95;;;8.30;99.90;;;;;;4847314;29;20051;-83
2023/02/23 07:00:55;;;;;;;24.13;11.93;;;8.30;99.90;;;;;;4862487;29;20049;-83
2023/02/23 07:03:25;;;;;;;23.10;10.70;;;8.30;99.90;;;;;;4862493;29;20056;-83
2023/02/23 07:05:53;;;;;;;23.88;11.20;;;8.30;99.90;;;;;;4862274;29;20045;-83
2023/02/23 07:08:20;;;;;;;23.20;10.38;;;8.30;99.90;;;;;;4877840;29;20049;-83
2023/02/23 07:10:47;;;;;;;26.33;11.02;;;8.30;99.90;;;;;;4844237;29;20393;-83
2023/02/23 07:13:15;;;;;;;30.13;13.93;;;8.30;99.90;;;;;;4859993;29;20112;-83
2023/02/23 07:15:42;;;;;;;31.35;15.20;;;8.30;99.90;;;;;;4849433;29;20077;-83
2023/02/23 07:18:09;;;;;;;34.85;16.13;;;8.20;99.90;;;;;;4847038;29;20076;-83
2023/02/23 07:20:36;;;;;;;32.78;16.77;;;8.20;99.90;;;;;;4831815;29;20045;-83
2023/02/23 07:23:03;;;;;;;32.83;15.35;;;8.10;99.90;;;;;;4848676;29;20045;-92
2023/02/23 07:25:31;;;;;;;30.50;13.80;;;8.10;99.90;;;;;;4850253;29;20073;-92
2023/02/23 07:28:01;;;;;;;25.75;13.50;;;8.10;99.90;;;;;;4863824;29;20053;-92
2023/02/23 07:30:28;;;;;;;26.25;11.60;;;8.10;99.90;;;;;;4858766;29;20053;-92
2023/02/23 07:32:55;;;;;;;27.00;12.32;;;8.10;99.90;;;;;;4848904;29;20060;-91
2023/02/23 07:35:22;;;;;;;26.33;12.40;;;8.20;99.90;;;;;;4863904;29;20052;-92
2023/02/23 07:37:49;;;;;;;26.33;12.30;;;8.10;99.90;;;;;;4856017;29;20060;-92
2023/02/23 07:40:18;;;;;;;22.77;10.15;;;8.10;99.90;;;;;;4856307;29;20117;-91
2023/02/23 07:42:45;;;;;;;23.23;12.43;;;8.20;99.90;;;;;;4873789;29;20049;-92
2023/02/23 07:45:13;;;;;;;22.85;11.77;;;8.20;99.90;;;;;;4875151;29;20120;-92
2023/02/23 07:47:40;;;;;;;23.30;11.43;;;8.10;99.90;;;;;;4852265;29;20056;-92
2023/02/23 07:50:08;;;;;;;24.70;11.57;;;8.10;99.90;;;;;;4851836;29;20056;-92
2023/02/23 07:52:37;;;;;;;20.35;10.35;;;8.10;99.90;;;;;;4852385;29;20113;-92
2023/02/23 07:55:06;;;;;;;21.80;10.65;;;8.10;99.90;;;;;;4866754;29;20059;-92
2023/02/23 07:57:34;;;;;;;19.45;8.90;;;8.20;99.90;;;;;;4873805;29;20428;-92
2023/02/23 08:00:01;;;;;;;18.58;8.32;;;8.20;99.90;;;;;;4884482;29;20100;-84
2023/02/23 08:02:38;;;;;;;18.75;8.73;;;8.30;99.90;;;;;;4840189;29;20040;-84
2023/02/23 08:05:06;;;;;;;20.27;10.43;;;8.30;99.90;;;;;;4865806;29;20483;-85
2023/02/23 08:07:33;;;;;;;17.77;9.02;;;8.30;99.90;;;;;;4865505;29;20049;-83
2023/02/23 08:10:00;;;;;;;17.35;8.55;;;8.30;99.90;;;;;;4865849;29;20061;-83
2023/02/23 08:12:32;;;;;;;17.13;8.65;;;8.30;99.90;;;;;;4862344;29;20048;-83
2023/02/23 08:14:59;;;;;;;20.13;8.70;;;8.30;99.90;;;;;;4855050;29;20072;-84
2023/02/23 08:17:26;;;;;;;19.23;9.45;;;8.30;99.90;;;;;;4856901;29;20780;-83
2023/02/23 08:19:55;;;;;;;18.05;8.93;;;8.30;99.90;;;;;;4850024;29;20501;-83
2023/02/23 08:22:22;;;;;;;18.33;10.57;;;8.40;99.90;;;;;;4849913;29;20049;-83
2023/02/23 08:24:49;;;;;;;19.15;7.80;;;8.40;99.90;;;;;;4865283;29;20048;-84
2023/02/23 08:27:16;;;;;;;19.70;9.63;;;8.40;99.90;;;;;;4850026;29;20055;-83
2023/02/23 08:29:43;;;;;;;18.25;8.73;;;8.40;99.90;;;;;;4861339;29;20045;-83
2023/02/23 08:32:10;;;;;;;22.15;10.60;;;8.40;99.90;;;;;;4865193;29;20145;-82
2023/02/23 08:34:43;;;;;;;20.55;10.07;;;8.40;99.90;;;;;;4849447;29;20134;-83
2023/02/23 08:37:11;;;;;;;23.58;11.70;;;8.50;99.90;;;;;;4847060;29;20053;-83
2023/02/23 08:39:38;;;;;;;25.15;12.38;;;8.40;99.90;;;;;;4874003;29;20100;-83
2023/02/23 08:42:05;;;;;;;25.25;11.65;;;8.40;99.90;;;;;;4849782;29;20079;-83
2023/02/23 08:44:32;;;;;;;23.30;10.40;;;8.40;99.90;;;;;;4849795;29;20119;-83
2023/02/23 08:47:03;;;;;;;23.23;11.63;;;8.50;99.90;;;;;;4865003;29;20044;-83
2023/02/23 08:49:31;;;;;;;20.23;10.27;;;8.50;99.90;;;;;;4856636;29;20038;-83
2023/02/23 08:51:59;;;;;;;22.08;10.07;;;8.60;99.90;;;;;;4846430;29;20049;-84
2023/02/23 08:54:26;;;;;;;23.95;10.90;;;8.60;99.90;;;;;;4864471;29;20052;-83
2023/02/23 08:56:56;;;;;;;22.55;11.43;;;8.60;99.90;;;;;;4864467;29;20053;-83
2023/02/23 08:59:24;;;;;;;20.58;10.10;;;8.60;99.90;;;;;;4864520;29;20414;-83
2023/02/23 09:01:51;;;;;;;24.60;11.10;;;8.70;99.90;;;;;;4864799;29;20053;-83
2023/02/23 09:04:18;;;;;;;17.20;9.65;;;8.70;99.90;;;;;;4848932;29;20045;-83
2023/02/23 09:06:49;;;;;;;20.17;9.93;;;8.80;99.90;;;;;;4881186;29;20074;-84
2023/02/23 09:09:16;;;;;;;18.95;7.88;;;8.80;99.90;;;;;;4864321;29;20045;-83
2023/02/23 09:11:46;;;;;;;27.08;13.02;;;8.90;99.90;;;;;;4849015;29;20477;-84
2023/02/23 09:14:13;;;;;;;22.30;11.63;;;8.90;99.90;;;;;;4849436;29;20494;-83
2023/02/23 09:16:40;;;;;;;31.77;14.45;;;8.80;99.90;;;;;;4857388;29;20483;-83
2023/02/23 09:19:07;;;;;;;32.60;15.50;;;8.80;99.90;;;;;;4862673;29;20045;-83
2023/02/23 09:21:34;;;;;;;29.35;13.52;;;8.80;99.90;;;;;;4863952;29;20060;-84
2023/02/23 09:24:01;;;;;;;30.90;14.23;;;8.80;99.90;;;;;;4848753;29;20044;-83
2023/02/23 09:26:28;;;;;;;30.52;13.73;;;8.80;99.90;;;;;;4863666;29;20057;-83
2023/02/23 09:28:58;;;;;;;28.73;14.25;;;8.90;99.90;;;;;;4854051;29;20049;-83
2023/02/23 09:31:25;;;;;;;28.25;13.57;;;8.90;99.90;;;;;;4848582;29;20152;-83
2023/02/23 09:33:53;;;;;;;31.13;15.25;;;8.90;99.90;;;;;;4848643;29;20049;-84
2023/02/23 09:36:24;;;;;;;30.55;14.48;;;9.00;99.90;;;;;;4849115;29;20048;-84
2023/02/23 09:38:56;;;;;;;34.42;16.35;;;9.00;99.90;;;;;;4863769;29;20060;-83
2023/02/23 09:41:35;;;;;;;;;;;9.00;99.90;;;;;;4864109;29;20506;-84
2023/02/23 09:44:28;;;;;;;31.75;15.02;;;8.90;99.90;;;;;;4867485;29;19963;-84
2023/02/23 09:47:01;;;;;;;;;;;9.00;99.90;;;;;;4845837;29;20513;-84
2023/02/23 09:49:33;;;;;;;40.10;19.02;;;8.90;99.90;;;;;;4863256;29;19924;-84
2023/02/23 09:52:03;;;;;;;34.55;15.93;;;8.90;99.90;;;;;;4863637;29;20060;-83
2023/02/23 09:54:35;;;;;;;36.22;17.38;;;8.90;99.80;;;;;;4848241;29;20053;-84
2023/02/23 09:57:09;;;;;;;37.45;17.02;;;8.90;99.80;;;;;;4863782;29;20049;-84
2023/02/23 09:59:38;;;;;;;37.50;17.92;;;8.90;99.90;;;;;;4863062;29;20482;-83
2023/02/23 10:02:46;;;;;;;39.13;17.88;;;8.90;99.90;;;;;;4862979;29;20075;-83
2023/02/23 10:05:14;;;;;;;30.92;13.82;;;9.00;99.90;;;;;;4807405;29;20057;-84
2023/02/23 10:08:07;;;;;;;31.25;15.23;;;9.00;99.90;;;;;;4813033;29;20058;-83
2023/02/23 10:10:57;;;;;;;30.80;15.23;;;9.20;99.70;;;;;;4852240;29;20049;-83
2023/02/23 10:13:33;;;;;;;29.83;13.93;;;9.30;99.60;;;;;;4863250;29;20109;-84
2023/02/23 10:16:14;;;;;;;31.98;14.88;;;9.40;99.60;;;;;;4867973;29;20061;-83
2023/02/23 10:19:07;;;;;;;30.42;13.90;;;9.40;99.40;;;;;;4847366;29;20049;-83
2023/02/23 10:21:43;;;;;;;24.38;11.73;;;9.40;99.50;;;;;;4858553;29;20053;-83
2023/02/23 10:24:13;;;;;;;29.40;13.43;;;9.40;99.40;;;;;;4859994;29;20109;-84
2023/02/23 10:26:51;;;;;;;27.38;12.43;;;9.40;99.40;;;;;;4862948;29;20045;-84
2023/02/23 10:29:25;;;;;;;25.95;12.02;;;9.40;99.50;;;;;;4870304;29;20051;-84
2023/02/23 10:32:25;;;;;;;25.13;11.70;;;9.40;99.50;;;;;;4863113;29;20037;-82
2023/02/23 10:34:55;;;;;;;23.70;11.23;;;9.40;99.50;;;;;;4808948;29;20513;-83
2023/02/23 10:37:24;;;;;;;25.50;11.23;;;9.30;99.50;;;;;;4848080;29;20143;-82
2023/02/23 10:39:52;;;;;;;28.10;13.20;;;9.30;99.60;;;;;;4862747;29;20045;-83
2023/02/23 10:42:30;;;;;;;32.53;14.82;;;9.30;99.60;;;;;;4847889;29;20073;-86
2023/02/23 10:45:00;;;;;;;29.85;14.27;;;9.30;99.50;;;;;;4847793;29;20398;-84
2023/02/23 10:47:33;;;;;;;34.42;16.23;;;9.30;99.50;;;;;;4847471;29;20135;-83
2023/02/23 10:50:02;;;;;;;37.65;17.08;;;9.30;99.50;;;;;;4850512;29;20053;-84
2023/02/23 10:52:39;;;;;;;33.42;15.77;;;9.20;99.50;;;;;;4850954;29;20132;-84
2023/02/23 10:55:29;;;;;;;29.52;13.77;;;9.30;99.60;;;;;;4860550;29;20074;-84
2023/02/23 10:58:07;;;;;;;26.65;12.85;;;9.30;99.50;;;;;;4867609;29;20049;-90
2023/02/23 11:00:39;;;;;;;28.45;12.40;;;9.30;99.50;;;;;;4863680;29;20045;-90
2023/02/23 11:03:25;;;;;;;27.08;12.82;;;9.40;99.40;;;;;;4833410;29;20053;-90
2023/02/23 11:05:53;;;;;;;23.98;11.00;;;9.40;99.40;;;;;;4863595;29;20492;-91
2023/02/23 11:08:21;;;;;;;34.15;15.13;;;9.40;99.40;;;;;;4864419;29;20082;-89
2023/02/23 11:11:03;;;;;;;30.00;13.00;;;9.40;99.30;;;;;;4862749;29;20049;-88
2023/02/23 11:13:45;;;;;;;29.70;13.70;;;9.40;99.30;;;;;;4845253;29;20141;-89
2023/02/23 11:16:43;;;;;;;25.35;13.05;;;9.50;99.30;;;;;;4867108;29;20064;-89
2023/02/23 11:19:23;;;;;;;31.98;15.25;;;9.40;99.30;;;;;;4836246;29;20144;-88
2023/02/23 11:21:51;;;;;;;31.52;15.23;;;9.40;99.20;;;;;;4866753;29;20055;-84
2023/02/23 11:24:26;;;;;;;27.30;13.15;;;9.40;99.20;;;;;;4851805;29;20090;-86
2023/02/23 11:26:58;;;;;;;29.83;13.48;;;9.30;99.30;;;;;;4872486;29;20052;-92
2023/02/23 11:29:43;;;;;;;32.47;14.90;;;9.40;99.30;;;;;;4867356;29;20045;-86
2023/02/23 11:32:13;;;;;;;27.85;13.20;;;9.40;99.20;;;;;;4858533;29;20056;-89
2023/02/23 11:34:42;;;;;;;22.35;11.10;;;9.40;99.30;;;;;;4847812;29;20059;-92
2023/02/23 11:37:13;;;;;;;31.25;13.60;;;9.40;99.30;;;;;;4868288;29;20052;-92
2023/02/23 11:39:53;;;;;;;28.08;13.65;;;9.40;99.20;;;;;;4867490;29;20075;-91
2023/02/23 11:42:34;;;;;;;25.80;12.07;;;9.50;99.20;;;;;;4846004;29;20462;-90
2023/02/23 11:45:32;;;;;;;27.10;12.05;;;9.50;99.20;;;;;;4851884;29;20057;-88
2023/02/23 11:48:01;;;;;;;30.33;14.43;;;9.50;99.20;;;;;;4857899;29;20045;-89
2023/02/23 11:50:34;;;;;;;30.83;13.05;;;9.60;99.10;;;;;;4851234;29;20140;-89
2023/02/23 11:53:12;;;;;;;34.20;14.27;;;9.60;99.00;;;;;;4866576;29;20069;-90
2023/02/23 11:55:47;;;;;;;30.45;12.35;;;9.60;98.90;;;;;;4866946;29;20091;-90
2023/02/23 11:58:29;;;;;;;30.98;14.07;;;9.60;98.90;;;;;;4866929;29;20069;-90
2023/02/23 12:00:58;;;;;;;27.88;13.60;;;9.60;98.90;;;;;;4854279;29;20053;-90
2023/02/23 12:03:28;;;;;;;26.50;12.88;;;9.60;98.80;;;;;;4866423;29;20080;-89
2023/02/23 12:05:58;;;;;;;30.23;13.05;;;9.60;98.90;;;;;;4866254;29;20049;-88
2023/02/23 12:08:39;;;;;;;29.95;13.98;;;9.70;98.80;;;;;;4859381;29;20049;-88
2023/02/23 12:11:12;;;;;;;29.95;13.43;;;9.60;98.70;;;;;;4853476;29;20049;-88
2023/02/23 12:14:21;;;;;;;27.33;11.27;;;9.70;98.80;;;;;;4851496;29;20053;-88
2023/02/23 12:16:55;;;;;;;31.20;14.77;;;9.70;98.70;;;;;;4861416;29;20042;-88
2023/02/23 12:19:25;;;;;;;28.20;11.73;;;9.70;98.60;;;;;;4848901;29;20053;-87
2023/02/23 12:21:56;;;;;;;29.20;13.02;;;9.70;98.70;;;;;;4863236;29;20101;-88
2023/02/23 12:24:30;;;;;;;;;;;9.80;98.60;;;;;;4866315;29;20057;-88
2023/02/23 12:27:21;;;;;;;24.13;10.23;;;9.80;98.60;;;;;;4866505;29;19931;-89
2023/02/23 12:30:14;;;;;;;26.30;10.88;;;9.80;98.50;;;;;;4824215;29;20046;-89
2023/02/23 12:32:56;;;;;;;23.30;10.85;;;9.80;98.40;;;;;;4861532;29;20049;-89
2023/02/23 12:35:42;;;;;;;25.05;10.45;;;9.80;98.50;;;;;;4864351;29;20063;-87
2023/02/23 12:38:29;;;;;;;23.67;10.32;;;9.80;98.50;;;;;;4850816;29;20065;-91
2023/02/23 12:41:17;;;;;;;23.35;11.27;;;9.70;98.50;;;;;;4856830;29;20053;-91
2023/02/23 12:44:14;;;;;;;21.67;9.15;;;9.70;98.50;;;;;;4865892;29;20060;-89
2023/02/23 12:46:47;;;;;;;21.88;9.95;;;9.70;98.60;;;;;;4826408;29;20076;-89
2023/02/23 12:49:47;;;;;;;23.35;10.57;;;9.60;98.60;;;;;;4865414;29;20490;-88
2023/02/23 12:52:30;;;;;;;18.05;8.45;;;9.60;98.60;;;;;;4829969;29;20057;-87
2023/02/23 12:55:00;;;;;;;21.02;8.90;;;9.60;98.60;;;;;;4865672;29;20180;-88
2023/02/23 12:57:43;;;;;;;17.48;9.32;;;9.50;98.70;;;;;;4850193;29;20049;-88
2023/02/23 13:00:59;;;;;;;17.65;9.05;;;9.50;98.70;;;;;;4850538;29;20493;-87
2023/02/23 13:03:36;;;;;;;21.65;9.18;;;9.50;98.60;;;;;;4862434;29;20177;-88
2023/02/23 13:06:23;;;;;;;17.20;7.43;;;9.40;98.60;;;;;;4854711;29;20049;-88
2023/02/23 13:09:40;;;;;;;18.05;7.63;;;9.40;98.70;;;;;;4850748;29;20053;-88
2023/02/23 13:12:22;;;;;;;16.15;6.53;;;9.40;98.70;;;;;;4852856;29;20052;-86
2023/02/23 13:15:20;;;;;;;13.20;5.97;;;9.50;98.70;;;;;;4849194;29;20057;-88
2023/02/23 13:18:10;;;;;;;12.70;5.78;;;9.50;98.60;;;;;;4867699;29;20065;-91
2023/02/23 13:20:53;;;;;;;15.32;6.75;;;9.50;98.60;;;;;;4864623;29;20148;-91
2023/02/23 13:23:52;;;;;;;14.55;5.65;;;9.50;98.60;;;;;;4853899;29;20498;-90
2023/02/23 13:26:41;;;;;;;14.18;6.00;;;9.50;98.50;;;;;;4847509;29;20048;-89
2023/02/23 13:29:35;;;;;;;18.35;8.05;;;9.40;98.50;;;;;;4856968;29;20105;-89
2023/02/23 13:32:03;;;;;;;;;;;9.40;98.40;;;;;;4837724;29;20055;-86
2023/02/23 13:34:35;;;;;;;12.23;5.07;;;9.30;98.50;;;;;;4864344;29;19927;-86
2023/02/23 13:37:05;;;;;;;14.60;6.23;;;9.40;98.60;;;;;;4863978;29;20462;-86
2023/02/23 13:39:46;;;;;;;14.57;6.13;;;9.30;98.50;;;;;;4864177;29;20694;-86
2023/02/23 13:42:19;;;;;;;9.00;3.85;;;9.40;98.60;;;;;;4845797;29;20140;-85
2023/02/23 13:45:08;;;;;;;9.23;3.97;;;9.40;98.60;;;;;;4843392;29;20061;-89
2023/02/23 13:47:49;;;;;;;9.60;4.85;;;9.50;98.50;;;;;;4849245;29;20053;-88
2023/02/23 13:50:53;;;;;;;9.07;3.58;;;9.50;98.40;;;;;;4864554;29;20068;-86
2023/02/23 13:53:40;;;;;;;7.22;3.53;;;9.40;98.40;;;;;;4847042;29;20049;-86
2023/02/23 13:56:20;;;;;;;10.45;4.22;;;9.50;98.50;;;;;;4864498;29;20069;-86
2023/02/23 13:58:52;;;;;;;7.78;3.00;;;9.50;98.40;;;;;;4861475;29;20056;-85
2023/02/23 14:01:26;;;;;;;10.48;4.50;;;9.50;98.50;;;;;;4851614;29;20475;-88
2023/02/23 14:03:57;;;;;;;8.00;3.55;;;9.50;98.30;;;;;;4876542;29;20155;-88
2023/02/23 14:06:28;;;;;;;9.70;3.55;;;9.60;98.30;;;;;;4863699;29;20418;-87
2023/02/23 14:09:20;;;;;;;7.53;3.38;;;9.70;98.20;;;;;;4880251;29;20542;-87
2023/02/23 14:11:52;;;;;;;7.57;3.53;;;9.80;98.10;;;;;;4855598;29;20045;-86
2023/02/23 14:14:29;;;;;;;8.68;3.42;;;9.80;98.10;;;;;;4877190;29;20108;-84
2023/02/23 14:17:34;;;;;;;8.38;3.20;;;9.90;98.00;;;;;;4868047;29;20041;-84
2023/02/23 14:20:10;;;;;;;9.48;3.25;;;9.90;98.00;;;;;;4811076;29;20053;-84
2023/02/23 14:23:17;;;;;;;10.40;4.22;;;9.90;98.00;;;;;;4863231;29;20057;-84
2023/02/23 14:26:07;;;;;;;10.60;5.10;;;9.90;97.90;;;;;;4847715;29;20509;-84
2023/02/23 14:28:38;;;;;;;10.13;4.05;;;9.80;97.90;;;;;;4850350;29;20491;-84
2023/02/23 14:31:11;;;;;;;8.77;3.40;;;9.80;98.10;;;;;;4862689;29;20485;-82
2023/02/23 14:33:41;;;;;;;10.35;3.80;;;9.80;98.10;;;;;;4862896;29;20059;-85